createdAt,value
2023-02-03T00:00:27.893Z,101597.50
2023-02-03T00:02:55.186Z,101604.53
2023-02-03T00:05:21.809Z,101599.19
2023-02-03T00:07:48.225Z,101590.97
2023-02-03T00:10:14.863Z,101588.50
2023-02-03T00:12:41.652Z,101577.00
2023-02-03T00:15:08.543Z,101579.66
2023-02-03T00:17:35.008Z,101568.34
2023-02-03T00:20:01.590Z,101566.66
2023-02-03T00:22:28.146Z,101568.34
2023-02-03T00:24:54.632Z,101569.34
2023-02-03T00:27:21.118Z,101559.50
2023-02-03T00:29:47.760Z,101537.50
2023-02-03T00:32:14.398Z,101537.50
2023-02-03T00:34:41.395Z,101533.00
2023-02-03T00:37:08.354Z,101534.00
2023-02-03T00:39:35.497Z,101527.03
2023-02-03T00:42:01.984Z,101518.00
2023-02-03T00:44:28.499Z,101504.66
2023-02-03T00:46:55.082Z,101497.69
2023-02-03T00:49:21.522Z,101482.47
2023-02-03T00:51:48.013Z,101484.97
2023-02-03T00:54:14.918Z,101477.81
2023-02-03T00:56:41.451Z,101469.81
2023-02-03T00:59:08.051Z,101468.97
2023-02-03T01:01:35.184Z,101465.66
2023-02-03T01:04:02.287Z,101452.31
2023-02-03T01:06:28.754Z,101452.31
2023-02-03T01:08:55.958Z,101438.13
2023-02-03T01:11:22.456Z,101419.47
2023-02-03T01:13:49.389Z,101414.31
2023-02-03T01:16:15.939Z,101422.13
2023-02-03T01:18:42.840Z,101428.47
2023-02-03T01:21:09.286Z,101434.63
2023-02-03T01:23:35.810Z,101427.63
2023-02-03T01:26:02.346Z,101428.66
2023-02-03T01:28:28.804Z,101428.66
2023-02-03T01:30:55.474Z,101414.47
2023-02-03T01:33:22.140Z,101417.97
2023-02-03T01:35:48.688Z,101410.81
2023-02-03T01:38:16.171Z,101406.66
2023-02-03T01:40:42.980Z,101401.13
2023-02-03T01:43:09.940Z,101411.19
2023-02-03T01:45:36.472Z,101415.50
2023-02-03T01:48:03.213Z,101403.97
2023-02-03T01:50:29.756Z,101399.66
2023-02-03T01:52:56.298Z,101389.00
2023-02-03T01:55:22.828Z,101381.00
2023-02-03T01:57:49.766Z,101382.63
2023-02-03T02:00:16.230Z,101380.19
2023-02-03T02:02:42.772Z,101380.19
2023-02-03T02:05:10.090Z,101368.00
2023-02-03T02:07:36.785Z,101375.03
2023-02-03T02:10:03.368Z,101362.50
2023-02-03T02:12:30.525Z,101353.69
2023-02-03T02:14:57.075Z,101349.34
2023-02-03T02:17:23.885Z,101340.34
2023-02-03T02:19:50.368Z,101336.00
2023-02-03T02:22:16.827Z,101337.66
2023-02-03T02:24:43.432Z,101332.34
2023-02-03T02:27:09.891Z,101318.16
2023-02-03T02:29:36.428Z,101311.97
2023-02-03T02:32:02.999Z,101306.84
2023-02-03T02:34:29.447Z,101304.19
2023-02-03T02:36:55.959Z,101298.00
2023-02-03T02:39:22.503Z,101280.19
2023-02-03T02:41:49.156Z,101277.50
2023-02-03T02:44:15.829Z,101266.84
2023-02-03T02:46:42.328Z,101247.50
2023-02-03T02:49:08.732Z,101244.66
2023-02-03T02:51:35.265Z,101237.69
2023-02-03T02:54:01.766Z,101217.16
2023-02-03T02:56:28.356Z,101216.34
2023-02-03T02:58:54.713Z,101213.03
2023-02-03T03:01:21.377Z,101205.84
2023-02-03T03:03:48.219Z,101215.69
2023-02-03T03:06:15.085Z,101208.53
2023-02-03T03:08:41.609Z,101208.34
2023-02-03T03:11:08.119Z,101201.53
2023-02-03T03:13:34.679Z,101197.00
2023-02-03T03:16:01.276Z,101198.88
2023-02-03T03:18:28.028Z,101198.03
2023-02-03T03:20:54.597Z,101195.38
2023-02-03T03:23:21.153Z,101184.69
2023-02-03T03:25:47.892Z,101174.22
2023-02-03T03:28:15.067Z,101172.38
2023-02-03T03:30:41.833Z,101170.75
2023-02-03T03:33:08.382Z,101163.53
2023-02-03T03:35:35.345Z,101155.72
2023-02-03T03:38:02.292Z,101152.88
2023-02-03T03:40:29.003Z,101141.41
2023-02-03T03:42:55.485Z,101135.22
2023-02-03T03:45:21.972Z,101117.41
2023-02-03T03:47:48.623Z,101106.72
2023-02-03T03:50:15.348Z,101102.19
2023-02-03T03:52:41.741Z,101092.38
2023-02-03T03:55:08.180Z,101086.38
2023-02-03T03:57:34.647Z,101080.06
2023-02-03T04:00:01.031Z,101066.72
2023-02-03T04:02:28.078Z,101054.38
2023-02-03T04:04:54.546Z,101058.91
2023-02-03T04:07:20.965Z,101042.72
2023-02-03T04:09:47.396Z,101035.72
2023-02-03T04:12:13.736Z,101030.38
2023-02-03T04:14:40.017Z,101021.56
2023-02-03T04:17:06.553Z,101018.06
2023-02-03T04:19:33.707Z,101010.25
2023-02-03T04:22:00.301Z,101008.22
2023-02-03T04:24:27.321Z,101006.56
2023-02-03T04:26:53.692Z,101011.09
2023-02-03T04:29:20.130Z,101008.41
2023-02-03T04:31:46.670Z,101004.91
2023-02-03T04:34:13.121Z,100998.78
2023-02-03T04:36:39.627Z,100991.56
2023-02-03T04:39:06.269Z,100989.94
2023-02-03T04:41:32.908Z,100984.59
2023-02-03T04:43:59.336Z,100966.94
2023-02-03T04:46:25.787Z,100943.75
2023-02-03T04:48:52.330Z,100950.13
2023-02-03T04:51:18.721Z,100953.63
2023-02-03T04:53:45.468Z,100958.75
2023-02-03T04:56:12.899Z,100949.94
2023-02-03T04:58:39.260Z,100935.13
2023-02-03T05:01:05.794Z,100921.44
2023-02-03T05:03:32.643Z,100920.78
2023-02-03T05:05:59.073Z,100925.31
2023-02-03T05:08:25.727Z,100926.13
2023-02-03T05:10:52.158Z,100911.13
2023-02-03T05:13:18.595Z,100906.00
2023-02-03T05:15:45.774Z,100899.44
2023-02-03T05:18:12.259Z,100888.16
2023-02-03T05:20:38.621Z,100885.50
2023-02-03T05:23:05.024Z,100884.66
2023-02-03T05:25:31.794Z,100887.13
2023-02-03T05:27:58.393Z,100874.81
2023-02-03T05:30:24.876Z,100881.81
2023-02-03T05:32:51.337Z,100870.50
2023-02-03T05:35:17.699Z,100868.66
2023-02-03T05:37:44.205Z,100868.66
2023-02-03T05:40:11.267Z,100862.50
2023-02-03T05:42:37.699Z,100862.72
2023-02-03T05:45:04.119Z,100862.50
2023-02-03T05:47:30.888Z,100856.53
2023-02-03T05:49:57.251Z,100856.53
2023-02-03T05:52:23.704Z,100846.91
2023-02-03T05:54:50.021Z,100849.38
2023-02-03T05:57:17.009Z,100842.38
2023-02-03T05:59:43.340Z,100821.03
2023-02-03T06:02:09.716Z,100825.56
2023-02-03T06:04:36.155Z,100823.94
2023-02-03T06:07:02.563Z,100815.09
2023-02-03T06:09:29.100Z,100803.59
2023-02-03T06:11:55.485Z,100802.78
2023-02-03T06:14:21.944Z,100807.09
2023-02-03T06:16:48.402Z,100800.91
2023-02-03T06:19:16.348Z,100797.44
2023-02-03T06:21:43.115Z,100784.13
2023-02-03T06:24:09.669Z,100781.66
2023-02-03T06:26:36.012Z,100777.94
2023-02-03T06:29:02.580Z,100770.78
2023-02-03T06:31:29.102Z,100771.78
2023-02-03T06:33:55.639Z,100758.44
2023-02-03T06:36:22.091Z,100745.34
2023-02-03T06:38:48.561Z,100746.78
2023-02-03T06:41:14.884Z,100732.81
2023-02-03T06:43:41.458Z,100739.78
2023-02-03T06:46:08.343Z,100736.31
2023-02-03T06:48:34.787Z,100726.69
2023-02-03T06:51:01.343Z,100736.50
2023-02-03T06:53:27.889Z,100738.16
2023-02-03T06:55:54.371Z,100737.53
2023-02-03T06:58:21.065Z,100740.19
2023-02-03T07:00:47.407Z,100735.06
2023-02-03T07:03:13.832Z,100739.19
2023-02-03T07:05:40.559Z,100734.03
2023-02-03T07:08:07.092Z,100733.00
2023-02-03T07:10:33.422Z,100721.72
2023-02-03T07:13:00.113Z,100714.53
2023-02-03T07:15:26.541Z,100709.19
2023-02-03T07:17:53.299Z,100706.75
2023-02-03T07:20:19.932Z,100704.91
2023-02-03T07:22:46.317Z,100697.09
2023-02-03T07:25:12.692Z,100688.28
2023-02-03T07:27:39.492Z,100690.97
2023-02-03T07:30:06.470Z,100687.47
2023-02-03T07:32:33.954Z,100685.81
2023-02-03T07:35:00.414Z,100680.50
2023-02-03T07:37:27.092Z,100664.31
2023-02-03T07:39:53.477Z,100665.31
2023-02-03T07:42:19.932Z,100645.84
2023-02-03T07:44:46.529Z,100642.13
2023-02-03T07:47:12.945Z,100637.63
2023-02-03T07:49:39.633Z,100636.81
2023-02-03T07:52:06.059Z,100624.50
2023-02-03T07:54:32.442Z,100613.84
2023-02-03T07:56:58.843Z,100613.84
2023-02-03T07:59:25.381Z,100610.16
2023-02-03T08:01:51.930Z,100604.81
2023-02-03T08:04:18.464Z,100592.50
2023-02-03T08:06:45.097Z,100597.66
2023-02-03T08:09:11.602Z,100580.63
2023-02-03T08:11:38.640Z,100577.78
2023-02-03T08:14:05.610Z,100563.81
2023-02-03T08:16:32.250Z,100556.63
2023-02-03T08:18:58.853Z,100559.91
2023-02-03T08:21:25.501Z,100547.81
2023-02-03T08:23:51.922Z,100556.84
2023-02-03T08:26:18.422Z,100543.50
2023-02-03T08:28:44.951Z,100533.47
2023-02-03T08:31:11.657Z,100540.44
2023-02-03T08:33:38.682Z,100539.63
2023-02-03T08:36:05.431Z,100538.81
2023-02-03T08:38:32.072Z,100532.66
2023-02-03T08:40:58.601Z,100520.94
2023-02-03T08:43:25.072Z,100521.97
2023-02-03T08:45:51.699Z,100508.03
2023-02-03T08:48:18.353Z,100501.69
2023-02-03T08:50:44.848Z,100489.59
2023-02-03T08:53:11.377Z,100487.13
2023-02-03T08:55:38.181Z,100476.44
2023-02-03T08:58:08.232Z,100477.25
2023-02-03T09:00:34.982Z,100476.44
2023-02-03T09:03:01.496Z,100462.50
2023-02-03T09:05:28.046Z,100459.63
2023-02-03T09:07:54.513Z,100455.94
2023-02-03T09:10:20.993Z,100446.09
2023-02-03T09:12:47.431Z,100434.00
2023-02-03T09:15:13.825Z,100438.09
2023-02-03T09:17:40.330Z,100434.59
2023-02-03T09:20:06.955Z,100432.78
2023-02-03T09:22:33.479Z,100434.41
2023-02-03T09:24:59.924Z,100423.75
2023-02-03T09:27:26.582Z,100419.25
2023-02-03T09:29:53.098Z,100420.28
2023-02-03T09:32:19.549Z,100432.56
2023-02-03T09:34:46.077Z,100411.06
2023-02-03T09:37:12.646Z,100401.63
2023-02-03T09:39:39.896Z,100402.22
2023-02-03T09:42:06.598Z,100386.22
2023-02-03T09:44:33.323Z,100391.56
2023-02-03T09:46:59.701Z,100374.75
2023-02-03T09:49:26.289Z,100380.28
2023-02-03T09:51:52.696Z,100371.47
2023-02-03T09:54:19.657Z,100368.59
2023-02-03T09:56:46.687Z,100363.66
2023-02-03T09:59:13.319Z,100356.31
2023-02-03T10:01:40.046Z,100356.31
2023-02-03T10:04:06.564Z,100357.94
2023-02-03T10:06:33.254Z,100341.94
2023-02-03T10:08:59.759Z,100341.13
2023-02-03T10:11:26.213Z,100324.13
2023-02-03T10:13:52.727Z,100306.06
2023-02-03T10:16:19.895Z,100310.56
2023-02-03T10:18:46.511Z,100313.22
2023-02-03T10:21:12.922Z,100303.38
2023-02-03T10:23:39.281Z,100303.19
2023-02-03T10:26:06.018Z,100291.91
2023-02-03T10:28:32.846Z,100284.53
2023-02-03T10:30:59.534Z,100270.81
2023-02-03T10:33:26.192Z,100263.19
2023-02-03T10:35:52.648Z,100271.41
2023-02-03T10:38:19.701Z,100276.94
2023-02-03T10:40:46.139Z,100266.28
2023-02-03T10:43:12.691Z,100257.25
2023-02-03T10:45:39.301Z,100238.81
2023-02-03T10:48:05.984Z,100236.75
2023-02-03T10:50:32.411Z,100228.75
2023-02-03T10:52:58.890Z,100239.81
2023-02-03T10:55:25.363Z,100223.03
2023-02-03T10:57:51.851Z,100211.34
2023-02-03T11:00:20.045Z,100216.66
2023-02-03T11:02:47.799Z,100208.88
2023-02-03T11:05:14.551Z,100208.66
2023-02-03T11:07:41.055Z,100207.25
2023-02-03T11:10:07.676Z,100207.03
2023-02-03T11:12:34.416Z,100184.88
2023-02-03T11:15:01.385Z,100198.22
2023-02-03T11:17:28.201Z,100195.53
2023-02-03T11:19:55.051Z,100189.19
2023-02-03T11:22:22.023Z,100207.84
2023-02-03T11:24:48.641Z,100192.03
2023-02-03T11:27:15.533Z,100223.03
2023-02-03T11:29:42.289Z,100363.28
2023-02-03T11:32:08.914Z,100359.56
2023-02-03T11:34:35.318Z,100331.28
2023-02-03T11:37:01.873Z,100349.09
2023-02-03T11:39:28.448Z,100332.91
2023-02-03T11:41:54.875Z,100303.59
2023-02-03T11:44:21.543Z,100295.19
2023-02-03T11:46:50.909Z,100289.03
2023-02-03T11:49:17.391Z,100292.72
2023-02-03T11:51:43.779Z,100298.25
2023-02-03T11:54:10.681Z,100286.78
2023-02-03T11:56:37.089Z,100282.28
2023-02-03T11:59:03.596Z,100285.97
2023-02-03T12:01:30.073Z,100269.97
2023-02-03T12:03:56.600Z,100272.66
2023-02-03T12:06:22.995Z,100273.44
2023-02-03T12:08:49.651Z,100278.78
2023-02-03T12:11:17.552Z,100273.69
2023-02-03T12:13:44.057Z,100290.28
2023-02-03T12:16:10.647Z,100281.69
2023-02-03T12:18:37.452Z,100280.00
2023-02-03T12:21:03.929Z,100272.00
2023-02-03T12:23:30.333Z,100284.53
2023-02-03T12:25:57.017Z,100290.66
2023-02-03T12:28:32.920Z,100289.88
2023-02-03T12:30:59.566Z,100284.34
2023-02-03T12:33:26.120Z,100262.38
2023-02-03T12:35:52.821Z,100263.22
2023-02-03T12:38:19.273Z,100267.72
2023-02-03T12:40:47.249Z,100281.88
2023-02-03T12:43:15.321Z,100286.38
2023-02-03T12:45:41.789Z,100289.03
2023-02-03T12:48:08.640Z,100299.69
2023-02-03T12:50:35.097Z,100296.22
2023-02-03T12:53:01.625Z,100307.69
2023-02-03T12:55:28.090Z,100299.50
2023-02-03T12:57:55.048Z,100298.06
2023-02-03T13:00:21.566Z,100301.56
2023-02-03T13:02:48.207Z,100308.53
2023-02-03T13:05:14.707Z,100316.53
2023-02-03T13:07:41.344Z,100311.19
2023-02-03T13:10:07.806Z,100306.91
2023-02-03T13:12:34.343Z,100293.56
2023-02-03T13:15:00.875Z,100287.41
2023-02-03T13:17:27.374Z,100297.03
2023-02-03T13:19:53.883Z,100293.56
2023-02-03T13:22:20.483Z,100296.22
2023-02-03T13:24:47.114Z,100298.06
2023-02-03T13:27:14.321Z,100293.56
2023-02-03T13:29:40.643Z,100290.91
2023-02-03T13:32:07.529Z,100298.91
2023-02-03T13:34:36.670Z,100322.88
2023-02-03T13:37:03.642Z,100418.59
2023-02-03T13:39:30.078Z,100418.59
2023-02-03T13:41:56.664Z,100432.75
2023-02-03T13:44:23.281Z,100439.72
2023-02-03T13:46:49.598Z,100449.34
2023-02-03T13:49:16.009Z,100442.41
2023-02-03T13:51:42.482Z,100420.28
2023-02-03T13:54:08.904Z,100411.44
2023-02-03T13:56:35.224Z,100418.59
2023-02-03T13:59:01.800Z,100421.28
2023-02-03T14:01:28.161Z,100429.25
2023-02-03T14:03:54.695Z,100451.41
2023-02-03T14:06:21.442Z,100444.44
2023-02-03T14:08:47.957Z,100439.13
2023-02-03T14:11:14.397Z,100425.78
2023-02-03T14:13:41.249Z,100392.78
2023-02-03T14:16:07.939Z,100411.25
2023-02-03T14:18:34.400Z,100409.59
2023-02-03T14:21:01.139Z,100406.09
2023-02-03T14:23:28.061Z,100414.31
2023-02-03T14:25:54.638Z,100411.63
2023-02-03T14:28:21.170Z,100413.50
2023-02-03T14:30:48.045Z,100417.81
2023-02-03T14:33:14.655Z,100418.84
2023-02-03T14:35:41.028Z,100426.81
2023-02-03T14:38:07.913Z,100435.63
2023-02-03T14:40:34.239Z,100424.16
2023-02-03T14:43:09.724Z,100438.50
2023-02-03T14:45:36.743Z,100436.66
2023-02-03T14:48:03.107Z,100430.50
2023-02-03T14:50:29.421Z,100445.47
2023-02-03T14:52:56.135Z,100441.97
2023-02-03T14:55:23.117Z,100443.81
2023-02-03T14:57:49.696Z,100460.66
2023-02-03T15:00:16.559Z,100454.47
2023-02-03T15:02:42.982Z,100458.16
2023-02-03T15:05:09.545Z,100458.81
2023-02-03T15:07:36.013Z,100460.84
2023-02-03T15:10:02.465Z,100452.66
2023-02-03T15:12:28.833Z,100470.47
2023-02-03T15:14:55.627Z,100471.31
2023-02-03T15:17:22.000Z,100475.00
2023-02-03T15:19:48.384Z,100473.97
2023-02-03T15:22:14.869Z,100475.59
2023-02-03T15:24:41.637Z,100467.59
2023-02-03T15:27:08.036Z,100485.47
2023-02-03T15:29:34.378Z,100483.59
2023-02-03T15:32:00.784Z,100481.78
2023-02-03T15:34:27.931Z,100492.44
2023-02-03T15:36:54.259Z,100479.28
2023-02-03T15:39:21.051Z,100475.78
2023-02-03T15:41:47.443Z,100478.28
2023-02-03T15:44:14.122Z,100485.22
2023-02-03T15:46:40.856Z,100480.94
2023-02-03T15:49:07.564Z,100482.56
2023-02-03T15:51:33.920Z,100478.28
2023-02-03T15:54:00.352Z,100485.22
2023-02-03T15:56:26.656Z,100488.72
2023-02-03T15:58:52.995Z,100500.22
2023-02-03T16:01:19.375Z,100506.56
2023-02-03T16:03:46.060Z,100510.06
2023-02-03T16:06:12.465Z,100521.56
2023-02-03T16:08:38.827Z,100513.75
2023-02-03T16:11:05.363Z,100517.22
2023-02-03T16:13:31.706Z,100521.56
2023-02-03T16:15:58.207Z,100526.03
2023-02-03T16:18:24.652Z,100530.78
2023-02-03T16:20:51.349Z,100522.78
2023-02-03T16:23:18.029Z,100528.09
2023-02-03T16:25:44.693Z,100512.91
2023-02-03T16:28:11.108Z,100526.25
2023-02-03T16:30:37.505Z,100519.88
2023-02-03T16:33:04.204Z,100534.88
2023-02-03T16:35:31.153Z,100534.88
2023-02-03T16:37:57.741Z,100523.19
2023-02-03T16:40:24.385Z,100539.19
2023-02-03T16:42:51.000Z,100525.22
2023-02-03T16:45:17.651Z,100533.00
2023-02-03T16:47:44.273Z,100530.53
2023-02-03T16:50:10.688Z,100535.06
2023-02-03T16:52:37.101Z,100537.75
2023-02-03T16:55:03.538Z,100536.72
2023-02-03T16:57:29.964Z,100532.41
2023-02-03T16:59:56.303Z,100539.19
2023-02-03T17:02:22.738Z,100551.06
2023-02-03T17:04:49.102Z,100537.53
2023-02-03T17:07:15.431Z,100533.22
2023-02-03T17:09:41.968Z,100537.75
2023-02-03T17:12:08.293Z,100537.75
2023-02-03T17:14:34.608Z,100550.22
2023-02-03T17:17:01.092Z,100541.22
2023-02-03T17:19:27.504Z,100557.19
2023-02-03T17:21:53.922Z,100539.56
2023-02-03T17:24:20.408Z,100556.41
2023-02-03T17:26:47.186Z,100556.41
2023-02-03T17:29:13.515Z,100554.75
2023-02-03T17:31:39.964Z,100548.59
2023-02-03T17:34:06.405Z,100557.44
2023-02-03T17:36:32.829Z,100560.88
2023-02-03T17:55:23.311Z,100585.06
2023-02-03T17:57:49.633Z,100588.75
2023-02-03T18:00:16.900Z,100585.91
2023-02-03T18:02:43.380Z,100594.75
2023-02-03T18:05:09.809Z,100585.72
2023-02-03T18:07:36.154Z,100595.75
2023-02-03T18:10:02.568Z,100596.56
2023-02-03T18:12:28.938Z,100605.41
2023-02-03T18:14:57.103Z,100602.72
2023-02-03T18:17:24.130Z,100613.41
2023-02-03T18:19:55.697Z,100607.44
2023-02-03T18:22:23.050Z,100601.06
2023-02-03T18:24:49.413Z,100606.41
2023-02-03T18:27:15.883Z,100605.59
2023-02-03T18:29:42.180Z,100600.25
2023-02-03T18:32:08.777Z,100597.59
2023-02-03T18:34:35.186Z,100602.94
2023-02-03T18:37:01.556Z,100610.09
2023-02-03T18:39:28.150Z,100610.09
2023-02-03T18:41:54.509Z,100608.25
2023-02-03T18:44:21.369Z,100611.13
2023-02-03T18:46:47.780Z,100602.09
2023-02-03T18:49:14.114Z,100598.59
2023-02-03T18:51:40.617Z,100598.59
2023-02-03T18:54:07.516Z,100609.25
2023-02-03T18:56:33.808Z,100621.78
2023-02-03T18:59:00.241Z,100621.97
2023-02-03T19:01:26.826Z,100637.78
2023-02-03T19:03:53.353Z,100623.22
2023-02-03T19:06:19.839Z,100627.09
2023-02-03T19:08:46.178Z,100637.56
2023-02-03T19:11:12.563Z,100643.91
2023-02-03T19:13:38.943Z,100649.47
2023-02-03T19:16:05.376Z,100637.97
2023-02-03T19:18:32.304Z,100628.75
2023-02-03T19:20:58.916Z,100640.44
2023-02-03T19:23:26.070Z,100648.44
2023-02-03T19:25:52.460Z,100638.56
2023-02-03T19:28:29.965Z,100642.06
2023-02-03T19:31:00.116Z,100649.47
2023-02-03T19:33:29.342Z,100646.78
2023-02-03T19:35:55.703Z,100653.94
2023-02-03T19:38:22.033Z,100662.78
2023-02-03T19:40:49.015Z,100642.25
2023-02-03T19:43:15.879Z,100659.91
2023-02-03T19:45:42.642Z,100658.72
2023-02-03T19:48:09.021Z,100651.91
2023-02-03T19:50:35.368Z,100673.44
2023-02-03T19:53:01.939Z,100648.44
2023-02-03T19:55:28.316Z,100658.25
2023-02-03T19:57:55.226Z,100649.47
2023-02-03T20:00:21.573Z,100648.63
2023-02-03T20:02:47.847Z,100678.78
2023-02-03T20:05:14.257Z,100660.91
2023-02-03T20:07:40.865Z,100669.75
2023-02-03T20:10:07.159Z,100661.94
2023-02-03T20:12:33.466Z,100668.91
2023-02-03T20:14:59.858Z,100667.28
2023-02-03T20:17:26.158Z,100668.91
2023-02-03T20:19:52.661Z,100672.59
2023-02-03T20:22:19.534Z,100676.09
2023-02-03T20:24:46.364Z,100679.56
2023-02-03T20:27:12.857Z,100684.09
2023-02-03T20:29:40.140Z,100692.09
2023-02-03T20:32:06.643Z,100680.59
2023-02-03T20:34:33.075Z,100685.94
2023-02-03T20:36:59.527Z,100699.25
2023-02-03T20:39:26.026Z,100689.44
2023-02-03T20:41:52.392Z,100696.78
2023-02-03T20:44:19.322Z,100691.25
2023-02-03T20:46:46.093Z,100697.44
2023-02-03T20:49:12.610Z,100686.13
2023-02-03T20:51:39.211Z,100675.47
2023-02-03T20:54:05.599Z,100685.09
2023-02-03T20:56:31.984Z,100686.97
2023-02-03T20:58:58.468Z,100697.81
2023-02-03T21:01:25.142Z,100701.31
2023-02-03T21:03:51.672Z,100713.81
2023-02-03T21:06:18.061Z,100720.78
2023-02-03T21:08:44.466Z,100719.13
2023-02-03T21:11:11.080Z,100731.44
2023-02-03T21:13:37.901Z,100738.41
2023-02-03T21:16:04.525Z,100736.75
2023-02-03T21:18:31.054Z,100736.94
2023-02-03T21:20:57.565Z,100731.44
2023-02-03T21:23:24.077Z,100746.63
2023-02-03T21:25:50.392Z,100723.44
2023-02-03T21:28:17.197Z,100734.09
2023-02-03T21:30:43.650Z,100737.78
2023-02-03T21:33:10.091Z,100748.44
2023-02-03T21:35:36.493Z,100738.63
2023-02-03T21:38:03.423Z,100753.78
2023-02-03T21:40:30.050Z,100747.63
2023-02-03T21:42:56.618Z,100759.94
2023-02-03T21:45:23.202Z,100768.13
2023-02-03T21:47:49.520Z,100778.59
2023-02-03T21:50:15.880Z,100770.59
2023-02-03T21:52:42.390Z,100798.91
2023-02-03T21:55:09.284Z,100803.41
2023-02-03T21:57:35.946Z,100829.84
2023-02-03T22:00:02.290Z,100853.28
2023-02-03T22:02:28.771Z,100842.63
2023-02-03T22:04:56.137Z,100875.78
2023-02-03T22:07:22.589Z,100892.81
2023-02-03T22:09:49.163Z,100885.81
2023-02-03T22:12:15.441Z,100891.53
2023-02-03T22:14:42.136Z,100913.94
2023-02-03T22:17:08.665Z,100922.59
2023-02-03T22:19:35.098Z,100928.09
2023-02-03T22:22:01.769Z,100941.44
2023-02-03T22:24:28.368Z,100950.41
2023-02-03T22:26:54.681Z,100953.09
2023-02-03T22:29:21.290Z,100971.75
2023-02-03T22:31:47.773Z,100983.25
2023-02-03T22:34:14.176Z,100989.41
2023-02-03T22:36:41.164Z,101001.91
2023-02-03T22:39:07.444Z,100996.56
2023-02-03T22:41:33.800Z,101014.22
2023-02-03T22:44:00.176Z,101005.59
2023-02-03T22:46:27.000Z,101023.41
2023-02-03T22:48:53.530Z,101046.78
2023-02-03T22:51:20.035Z,101037.94
2023-02-03T22:53:46.872Z,101046.94
2023-02-03T22:56:13.293Z,101044.28
2023-02-03T22:58:39.762Z,101059.91
2023-02-03T23:01:06.209Z,101055.78
2023-02-03T23:03:33.081Z,101069.28
2023-02-03T23:05:59.601Z,101070.09
2023-02-03T23:08:26.155Z,101093.09
2023-02-03T23:10:53.099Z,101095.75
2023-02-03T23:13:19.474Z,101096.56
2023-02-03T23:15:45.988Z,101115.22
2023-02-03T23:18:13.554Z,101126.91
2023-02-03T23:20:40.029Z,101142.53
2023-02-03T23:23:06.973Z,101146.41
2023-02-03T23:25:34.166Z,101143.53
2023-02-03T23:28:00.610Z,101159.53
2023-02-03T23:30:27.091Z,101178.00
2023-02-03T23:32:53.492Z,101187.84
2023-02-03T23:35:19.828Z,101192.53
2023-02-03T23:37:46.334Z,101190.69
2023-02-03T23:40:12.972Z,101190.88
2023-02-03T23:42:39.348Z,101214.88
2023-02-03T23:45:05.813Z,101208.69
2023-02-03T23:47:32.142Z,101216.16
2023-02-03T23:49:58.505Z,101237.50
2023-02-03T23:52:24.889Z,101246.84
2023-02-03T23:54:51.623Z,101243.16
2023-02-03T23:57:17.951Z,101259.81
2023-02-03T23:59:44.288Z,101262.66
